Time,TemperatureF,DewpointF,PressureIn,WindDirection,WindDirectionDegrees,WindSpeedMPH,WindSpeedGustMPH,Humidity,HourlyPrecipIn,Conditions,Clouds,dailyrainin,SoftwareType,DateUTC
2013-05-05 00:05:00,62.7,45.3,29.93,NW,306,0.0,21.0,53,0.00,,,0.00,Wunderground v.1.15,2013-05-05 04:05:00,
2013-05-05 00:10:00,63.0,45.6,29.93,NW,306,0.0,21.0,53,0.00,,,0.00,Wunderground v.1.15,2013-05-05 04:10:00,
2013-05-05 00:15:00,63.2,46.3,29.93,NW,306,0.0,21.0,54,0.00,,,0.00,Wunderground v.1.15,2013-05-05 04:15:00,
2013-05-05 00:20:00,63.2,46.3,29.93,NW,306,0.0,21.0,54,0.00,,,0.00,Wunderground v.1.15,2013-05-05 04:20:00,
2013-05-05 00:25:00,63.2,46.3,29.93,NW,306,0.0,21.0,54,0.00,,,0.00,Wunderground v.1.15,2013-05-05 04:25:00,
2013-05-05 00:35:00,63.0,45.1,29.93,NW,306,0.0,21.0,52,0.00,,,0.00,Wunderground v.1.15,2013-05-05 04:35:00,
2013-05-05 00:40:00,63.1,44.2,29.92,NW,306,0.0,21.0,50,0.00,,,0.00,Wunderground v.1.15,2013-05-05 04:40:00,
2013-05-05 00:45:00,63.4,43.9,29.92,NW,306,0.0,21.0,49,0.00,,,0.00,Wunderground v.1.15,2013-05-05 04:45:00,
2013-05-05 00:50:00,63.5,45.6,29.92,NW,306,0.0,21.0,52,0.00,,,0.00,Wunderground v.1.15,2013-05-05 04:50:00,
2013-05-05 00:55:00,63.1,49.0,29.92,NW,306,0.0,21.0,60,0.00,,,0.00,Wunderground v.1.15,2013-05-05 04:55:00,
2013-05-05 01:00:00,62.6,49.4,29.92,NW,306,0.0,21.0,62,0.00,,,0.00,Wunderground v.1.15,2013-05-05 05:00:00,
2013-05-05 01:05:00,62.3,48.7,29.92,NW,306,0.0,21.0,61,0.00,,,0.00,Wunderground v.1.15,2013-05-05 05:05:00,
2013-05-05 01:15:00,62.2,51.5,29.92,NW,306,0.0,21.0,68,0.00,,,0.00,Wunderground v.1.15,2013-05-05 05:15:00,
2013-05-05 01:20:00,62.2,47.2,29.91,WNW,290,1.0,21.0,58,0.00,,,0.00,Wunderground v.1.15,2013-05-05 05:20:00,
2013-05-05 01:25:00,63.1,51.6,29.91,WSW,247,6.0,21.0,66,0.00,,,0.00,Wunderground v.1.15,2013-05-05 05:25:00,
2013-05-05 01:35:00,64.0,51.6,29.91,WSW,254,10.0,11.0,64,0.00,,,0.00,Wunderground v.1.15,2013-05-05 05:35:00,
2013-05-05 01:40:00,64.2,51.8,29.91,West,267,10.0,21.0,64,0.00,,,0.00,Wunderground v.1.15,2013-05-05 05:40:00,
2013-05-05 01:50:00,64.4,52.4,29.91,WSW,248,12.0,12.0,65,0.00,,,0.00,Wunderground v.1.15,2013-05-05 05:50:00,
2013-05-05 01:55:00,64.7,52.7,29.91,WSW,246,12.0,21.0,65,0.00,,,0.00,Wunderground v.1.15,2013-05-05 05:55:00,
2013-05-05 02:05:00,64.4,52.0,29.91,WSW,241,10.0,21.0,64,0.00,,,0.00,Wunderground v.1.15,2013-05-05 06:05:00,
2013-05-05 02:10:00,64.5,52.0,29.91,WSW,255,10.0,10.0,64,0.00,,,0.00,Wunderground v.1.15,2013-05-05 06:10:00,
2013-05-05 02:15:00,64.7,53.1,29.91,West,270,11.0,13.0,66,0.00,,,0.00,Wunderground v.1.15,2013-05-05 06:15:00,
2013-05-05 02:25:00,64.6,51.3,29.91,West,265,12.0,21.0,62,0.00,,,0.00,Wunderground v.1.15,2013-05-05 06:25:00,
2013-05-05 02:30:00,64.7,51.8,29.91,West,260,12.0,12.0,63,0.00,,,0.00,Wunderground v.1.15,2013-05-05 06:30:00,
2013-05-05 02:40:00,64.9,52.0,29.90,West,267,11.0,21.0,63,0.00,,,0.00,Wunderground v.1.15,2013-05-05 06:40:00,
2013-05-05 02:50:00,64.8,52.3,29.90,West,281,12.0,12.0,64,0.00,,,0.00,Wunderground v.1.15,2013-05-05 06:50:00,
2013-05-05 02:55:00,64.7,51.8,29.90,West,279,12.0,21.0,63,0.00,,,0.00,Wunderground v.1.15,2013-05-05 06:55:00,
2013-05-05 03:05:00,64.6,52.1,29.90,West,267,13.0,21.0,64,0.00,,,0.00,Wunderground v.1.15,2013-05-05 07:05:00,
2013-05-05 03:10:00,64.3,52.3,29.90,WNW,288,14.0,14.0,65,0.00,,,0.00,Wunderground v.1.15,2013-05-05 07:10:00,
2013-05-05 03:20:00,64.1,52.1,29.90,West,275,12.0,12.0,65,0.00,,,0.00,Wunderground v.1.15,2013-05-05 07:20:00,
2013-05-05 03:25:00,64.0,52.4,29.90,West,263,13.0,13.0,66,0.00,,,0.00,Wunderground v.1.15,2013-05-05 07:25:00,
2013-05-05 03:35:00,64.1,52.1,29.89,WSW,258,15.0,21.0,65,0.00,,,0.00,Wunderground v.1.15,2013-05-05 07:35:00,
2013-05-05 03:40:00,64.1,52.9,29.89,WSW,244,14.0,14.0,67,0.00,,,0.00,Wunderground v.1.15,2013-05-05 07:40:00,
2013-05-05 03:50:00,64.0,52.8,29.89,West,273,13.0,21.0,67,0.00,,,0.00,Wunderground v.1.15,2013-05-05 07:50:00,
2013-05-05 03:55:00,64.0,52.4,29.89,WSW,257,13.0,21.0,66,0.00,,,0.00,Wunderground v.1.15,2013-05-05 07:55:00,
2013-05-05 04:00:00,64.2,52.6,29.89,West,259,13.0,13.0,66,0.00,,,0.00,Wunderground v.1.15,2013-05-05 08:00:00,
2013-05-05 04:05:00,64.2,52.2,29.89,West,280,12.0,21.0,65,0.00,,,0.00,Wunderground v.1.15,2013-05-05 08:05:00,
2013-05-05 04:15:00,64.0,52.8,29.89,West,264,12.0,21.0,67,0.00,,,0.00,Wunderground v.1.15,2013-05-05 08:15:00,
2013-05-05 04:20:00,64.1,52.9,29.89,West,269,12.0,12.0,67,0.00,,,0.00,Wunderground v.1.15,2013-05-05 08:20:00,
2013-05-05 04:25:00,64.3,52.3,29.89,WSW,257,12.0,17.0,65,0.00,,,0.00,Wunderground v.1.15,2013-05-05 08:25:00,
2013-05-05 04:35:00,64.5,52.5,29.89,West,279,13.0,21.0,65,0.00,,,0.00,Wunderground v.1.15,2013-05-05 08:35:00,
2013-05-05 04:40:00,64.5,52.9,29.89,WSW,248,13.0,13.0,66,0.00,,,0.00,Wunderground v.1.15,2013-05-05 08:40:00,
2013-05-05 04:50:00,64.7,53.9,29.88,WNW,286,14.0,14.0,68,0.00,,,0.00,Wunderground v.1.15,2013-05-05 08:50:00,
2013-05-05 04:55:00,64.8,54.4,29.88,West,261,14.0,20.0,69,0.00,,,0.00,Wunderground v.1.15,2013-05-05 08:55:00,
2013-05-05 05:05:00,64.9,54.5,29.88,West,265,13.0,21.0,69,0.00,,,0.00,Wunderground v.1.15,2013-05-05 09:05:00,
2013-05-05 05:10:00,64.9,54.5,29.88,WSW,243,14.0,21.0,69,0.00,,,0.00,Wunderground v.1.15,2013-05-05 09:10:00,
2013-05-05 05:15:00,65.0,54.6,29.88,West,267,16.0,21.0,69,0.00,,,0.00,Wunderground v.1.15,2013-05-05 09:15:00,
2013-05-05 05:25:00,65.1,55.1,29.88,WSW,242,14.0,21.0,70,0.00,,,0.00,Wunderground v.1.15,2013-05-05 09:25:00,
2013-05-05 05:30:00,65.3,54.9,29.88,West,261,14.0,21.0,69,0.00,,,0.00,Wunderground v.1.15,2013-05-05 09:30:00,
2013-05-05 05:40:00,65.8,54.9,29.88,SW,234,17.0,17.0,68,0.00,,,0.00,Wunderground v.1.15,2013-05-05 09:40:00,
2013-05-05 05:45:00,65.9,55.0,29.88,West,259,18.0,18.0,68,0.00,,,0.00,Wunderground v.1.15,2013-05-05 09:45:00,
2013-05-05 05:50:00,65.9,55.8,29.88,West,263,15.0,21.0,70,0.00,,,0.00,Wunderground v.1.15,2013-05-05 09:50:00,
2013-05-05 05:55:00,65.9,56.2,29.87,WSW,248,15.0,21.0,71,0.00,,,0.00,Wunderground v.1.15,2013-05-05 09:55:00,
2013-05-05 06:05:00,65.9,56.6,29.87,SW,220,17.0,22.0,72,0.00,,,0.00,Wunderground v.1.15,2013-05-05 10:05:00,
2013-05-05 06:10:00,65.9,57.0,29.87,West,275,16.0,21.0,73,0.00,,,0.00,Wunderground v.1.15,2013-05-05 10:10:00,
2013-05-05 06:20:00,66.1,57.2,29.87,WSW,238,16.0,16.0,73,0.00,,,0.00,Wunderground v.1.15,2013-05-05 10:20:00,
2013-05-05 06:25:00,66.1,56.8,29.87,WSW,252,17.0,17.0,72,0.00,,,0.00,Wunderground v.1.15,2013-05-05 10:25:00,
2013-05-05 06:35:00,66.3,57.0,29.88,West,265,18.0,21.0,72,0.00,,,0.00,Wunderground v.1.15,2013-05-05 10:35:00,
2013-05-05 06:40:00,66.3,57.0,29.88,West,261,18.0,21.0,72,0.00,,,0.00,Wunderground v.1.15,2013-05-05 10:40:00,
2013-05-05 06:50:00,66.4,58.2,29.87,WSW,248,18.0,21.0,75,0.00,,,0.00,Wunderground v.1.15,2013-05-05 10:50:00,
2013-05-05 06:55:00,66.2,57.7,29.87,WSW,249,17.0,21.0,74,0.00,,,0.00,Wunderground v.1.15,2013-05-05 10:55:00,
2013-05-05 07:05:00,66.5,57.6,29.87,WSW,258,19.0,23.0,73,0.00,,,0.00,Wunderground v.1.15,2013-05-05 11:05:00,
2013-05-05 07:10:00,66.6,58.4,29.87,SW,235,20.0,20.0,75,0.00,,,0.00,Wunderground v.1.15,2013-05-05 11:10:00,
2013-05-05 07:15:00,66.6,58.4,29.87,WSW,240,20.0,22.0,75,0.00,,,0.00,Wunderground v.1.15,2013-05-05 11:15:00,
2013-05-05 07:20:00,66.6,58.1,29.87,WSW,240,20.0,24.0,74,0.00,,,0.00,Wunderground v.1.15,2013-05-05 11:20:00,
2013-05-05 07:30:00,66.8,58.6,29.87,WSW,241,21.0,24.0,75,0.00,,,0.00,Wunderground v.1.15,2013-05-05 11:30:00,
2013-05-05 07:35:00,67.0,58.8,29.88,WSW,255,21.0,26.0,75,0.00,,,0.00,Wunderground v.1.15,2013-05-05 11:35:00,
2013-05-05 07:40:00,66.9,58.3,29.88,West,259,21.0,21.0,74,0.00,,,0.00,Wunderground v.1.15,2013-05-05 11:40:00,
2013-05-05 07:50:00,67.1,58.9,29.87,West,263,20.0,21.0,75,0.00,,,0.00,Wunderground v.1.15,2013-05-05 11:50:00,
2013-05-05 07:55:00,67.0,58.8,29.87,WSW,252,20.0,24.0,75,0.00,,,0.00,Wunderground v.1.15,2013-05-05 11:55:00,
2013-05-05 08:05:00,67.2,59.4,29.87,WSW,251,20.0,21.0,76,0.00,,,0.00,Wunderground v.1.15,2013-05-05 12:05:00,
2013-05-05 08:10:00,67.4,59.6,29.87,WSW,257,20.0,21.0,76,0.00,,,0.00,Wunderground v.1.15,2013-05-05 12:10:00,
2013-05-05 08:20:00,67.7,59.9,29.88,West,263,20.0,20.0,76,0.00,,,0.00,Wunderground v.1.15,2013-05-05 12:20:00,
2013-05-05 08:25:00,67.2,59.4,29.87,NW,308,20.0,21.0,76,0.00,,,0.00,Wunderground v.1.15,2013-05-05 12:25:00,
2013-05-05 08:35:00,66.8,59.7,29.88,WNW,290,22.0,29.0,78,0.00,,,0.00,Wunderground v.1.15,2013-05-05 12:35:00,
2013-05-05 08:40:00,67.0,59.9,29.88,WNW,285,21.0,21.0,78,0.00,,,0.00,Wunderground v.1.15,2013-05-05 12:40:00,
2013-05-05 08:45:00,67.3,60.2,29.88,West,278,20.0,21.0,78,0.00,,,0.00,Wunderground v.1.15,2013-05-05 12:45:00,
2013-05-05 08:55:00,67.6,60.5,29.88,West,273,19.0,21.0,78,0.00,,,0.00,Wunderground v.1.15,2013-05-05 12:55:00,
2013-05-05 09:00:00,67.6,60.1,29.88,West,259,19.0,19.0,77,0.00,,,0.00,Wunderground v.1.15,2013-05-05 13:00:00,
2013-05-05 09:05:00,67.7,60.2,29.88,West,259,20.0,20.0,77,0.00,,,0.00,Wunderground v.1.15,2013-05-05 13:05:00,
2013-05-05 09:10:00,67.8,60.7,29.88,West,273,20.0,21.0,78,0.00,,,0.00,Wunderground v.1.15,2013-05-05 13:10:00,
2013-05-05 09:20:00,67.1,60.0,29.88,West,279,19.0,19.0,78,0.00,,,0.00,Wunderground v.1.15,2013-05-05 13:20:00,
2013-05-05 09:25:00,67.3,60.2,29.88,WNW,288,19.0,21.0,78,0.00,,,0.00,Wunderground v.1.15,2013-05-05 13:25:00,
2013-05-05 09:35:00,67.1,59.6,29.88,West,273,17.0,23.0,77,0.00,,,0.00,Wunderground v.1.15,2013-05-05 13:35:00,
2013-05-05 09:40:00,67.2,59.4,29.88,West,273,16.0,21.0,76,0.00,,,0.00,Wunderground v.1.15,2013-05-05 13:40:00,
2013-05-05 09:50:00,67.3,59.5,29.88,West,277,17.0,17.0,76,0.00,,,0.00,Wunderground v.1.15,2013-05-05 13:50:00,
2013-05-05 09:55:00,67.5,59.3,29.89,WNW,292,16.0,21.0,75,0.00,,,0.00,Wunderground v.1.15,2013-05-05 13:55:00,
2013-05-05 10:05:00,67.4,58.1,29.89,WSW,258,17.0,21.0,72,0.00,,,0.00,Wunderground v.1.15,2013-05-05 14:05:00,
2013-05-05 10:10:00,67.3,57.2,29.89,WNW,284,17.0,25.0,70,0.00,,,0.00,Wunderground v.1.15,2013-05-05 14:10:00,
2013-05-05 10:15:00,67.2,56.3,29.89,WNW,288,17.0,25.0,68,0.00,,,0.00,Wunderground v.1.15,2013-05-05 14:15:00,
2013-05-05 10:25:00,67.5,55.7,29.89,WNW,294,17.0,21.0,66,0.00,,,0.00,Wunderground v.1.15,2013-05-05 14:25:00,
2013-05-05 10:30:00,67.4,53.9,29.89,WNW,286,18.0,18.0,62,0.00,,,0.00,Wunderground v.1.15,2013-05-05 14:30:00,
2013-05-05 10:35:00,67.4,52.6,29.89,West,271,18.0,20.0,59,0.00,,,0.00,Wunderground v.1.15,2013-05-05 14:35:00,
2013-05-05 10:45:00,67.6,52.3,29.89,WNW,291,17.0,22.0,58,0.00,,,0.00,Wunderground v.1.15,2013-05-05 14:45:00,
2013-05-05 10:50:00,67.9,52.6,29.89,West,271,16.0,16.0,58,0.00,,,0.00,Wunderground v.1.15,2013-05-05 14:50:00,
2013-05-05 10:55:00,68.1,49.8,29.89,WNW,290,16.0,17.0,52,0.00,,,0.00,Wunderground v.1.15,2013-05-05 14:55:00,
2013-05-05 11:05:00,68.2,48.8,29.89,WNW,288,15.0,21.0,50,0.00,,,0.00,Wunderground v.1.15,2013-05-05 15:05:00,
2013-05-05 11:10:00,67.9,47.5,29.89,WNW,291,16.0,16.0,48,0.00,,,0.00,Wunderground v.1.15,2013-05-05 15:10:00,
2013-05-05 11:20:00,68.1,47.7,29.89,West,273,16.0,16.0,48,0.00,,,0.00,Wunderground v.1.15,2013-05-05 15:20:00,
2013-05-05 11:25:00,68.5,48.6,29.89,West,275,14.0,21.0,49,0.00,,,0.00,Wunderground v.1.15,2013-05-05 15:25:00,
2013-05-05 11:35:00,68.6,50.3,29.89,WNW,287,16.0,21.0,52,0.00,,,0.00,Wunderground v.1.15,2013-05-05 15:35:00,
2013-05-05 11:40:00,68.6,49.7,29.89,West,269,16.0,16.0,51,0.00,,,0.00,Wunderground v.1.15,2013-05-05 15:40:00,
2013-05-05 11:50:00,68.4,51.1,29.89,West,261,17.0,21.0,54,0.00,,,0.00,Wunderground v.1.15,2013-05-05 15:50:00,
2013-05-05 11:55:00,68.3,52.5,29.89,West,281,17.0,21.0,57,0.00,,,0.00,Wunderground v.1.15,2013-05-05 15:55:00,
2013-05-05 12:05:00,68.3,53.4,29.90,West,273,17.0,20.0,59,0.00,,,0.00,Wunderground v.1.15,2013-05-05 16:05:00,
2013-05-05 12:10:00,68.1,52.3,29.90,West,281,17.0,21.0,57,0.00,,,0.00,Wunderground v.1.15,2013-05-05 16:10:00,
2013-05-05 12:15:00,67.8,52.0,29.90,West,281,19.0,28.0,57,0.00,,,0.00,Wunderground v.1.15,2013-05-05 16:15:00,
2013-05-05 12:20:00,67.6,51.8,29.90,West,279,19.0,21.0,57,0.00,,,0.00,Wunderground v.1.15,2013-05-05 16:20:00,
2013-05-05 12:30:00,67.8,51.0,29.90,WNW,300,19.0,19.0,55,0.00,,,0.00,Wunderground v.1.15,2013-05-05 16:30:00,
2013-05-05 12:35:00,67.5,51.7,29.89,West,271,21.0,24.0,57,0.00,,,0.00,Wunderground v.1.15,2013-05-05 16:35:00,
2013-05-05 12:45:00,67.4,52.1,29.90,WNW,284,20.0,24.0,58,0.00,,,0.00,Wunderground v.1.15,2013-05-05 16:45:00,
2013-05-05 12:50:00,67.6,52.8,29.90,West,278,19.0,19.0,59,0.00,,,0.00,Wunderground v.1.15,2013-05-05 16:50:00,
2013-05-05 12:55:00,67.7,52.9,29.90,West,278,19.0,25.0,59,0.00,,,0.00,Wunderground v.1.15,2013-05-05 16:55:00,
2013-05-05 13:05:00,67.5,51.7,29.90,WNW,292,20.0,29.0,57,0.00,,,0.00,Wunderground v.1.15,2013-05-05 17:05:00,
2013-05-05 13:10:00,67.7,52.4,29.90,West,279,19.0,22.0,58,0.00,,,0.00,Wunderground v.1.15,2013-05-05 17:10:00,
2013-05-05 13:20:00,67.4,51.6,29.90,WNW,286,20.0,21.0,57,0.00,,,0.00,Wunderground v.1.15,2013-05-05 17:20:00,
2013-05-05 13:25:00,67.6,50.9,29.89,West,273,19.0,24.0,55,0.00,,,0.00,Wunderground v.1.15,2013-05-05 17:25:00,
2013-05-05 13:30:00,67.3,51.5,29.89,West,265,19.0,21.0,57,0.00,,,0.00,Wunderground v.1.15,2013-05-05 17:30:00,
2013-05-05 13:40:00,67.4,52.1,29.89,West,269,19.0,21.0,58,0.00,,,0.00,Wunderground v.1.15,2013-05-05 17:40:00,
2013-05-05 13:45:00,67.2,51.4,29.89,West,262,20.0,21.0,57,0.00,,,0.00,Wunderground v.1.15,2013-05-05 17:45:00,
2013-05-05 13:50:00,67.2,51.0,29.89,West,279,20.0,21.0,56,0.00,,,0.00,Wunderground v.1.15,2013-05-05 17:50:00,
2013-05-05 14:00:00,67.2,51.9,29.89,West,281,21.0,21.0,58,0.00,,,0.00,Wunderground v.1.15,2013-05-05 18:00:00,
2013-05-05 14:05:00,67.1,51.4,29.89,WSW,254,20.0,21.0,57,0.00,,,0.00,Wunderground v.1.15,2013-05-05 18:05:00,
2013-05-05 14:10:00,66.8,51.1,29.89,WNW,283,21.0,21.0,57,0.00,,,0.00,Wunderground v.1.15,2013-05-05 18:10:00,
2013-05-05 14:20:00,66.9,51.6,29.89,West,277,20.0,21.0,58,0.00,,,0.00,Wunderground v.1.15,2013-05-05 18:20:00,
2013-05-05 14:25:00,66.7,51.9,29.88,West,271,22.0,22.0,59,0.00,,,0.00,Wunderground v.1.15,2013-05-05 18:25:00,
2013-05-05 14:35:00,67.1,51.8,29.88,West,279,21.0,24.0,58,0.00,,,0.00,Wunderground v.1.15,2013-05-05 18:35:00,
2013-05-05 14:40:00,67.5,52.7,29.88,West,261,21.0,24.0,59,0.00,,,0.00,Wunderground v.1.15,2013-05-05 18:40:00,
2013-05-05 14:50:00,67.4,50.2,29.88,WNW,286,22.0,22.0,54,0.00,,,0.00,Wunderground v.1.15,2013-05-05 18:50:00,
2013-05-05 14:55:00,67.2,50.0,29.89,West,275,22.0,22.0,54,0.00,,,0.00,Wunderground v.1.15,2013-05-05 18:55:00,
2013-05-05 15:05:00,67.6,49.3,29.89,WSW,257,20.0,26.0,52,0.00,,,0.00,Wunderground v.1.15,2013-05-05 19:05:00,
2013-05-05 15:10:00,67.8,50.0,29.89,West,269,19.0,19.0,53,0.00,,,0.00,Wunderground v.1.15,2013-05-05 19:10:00,
2013-05-05 15:15:00,68.1,49.3,29.89,WNW,298,18.0,21.0,51,0.00,,,0.00,Wunderground v.1.15,2013-05-05 19:15:00,
2013-05-05 15:20:00,67.8,50.0,29.89,WNW,284,18.0,18.0,53,0.00,,,0.00,Wunderground v.1.15,2013-05-05 19:20:00,
2013-05-05 15:30:00,68.1,49.3,29.89,WNW,285,19.0,21.0,51,0.00,,,0.00,Wunderground v.1.15,2013-05-05 19:30:00,
2013-05-05 15:35:00,68.3,50.0,29.89,NW,311,17.0,21.0,52,0.00,,,0.00,Wunderground v.1.15,2013-05-05 19:35:00,
2013-05-05 15:45:00,67.9,49.1,29.89,WNW,299,19.0,25.0,51,0.00,,,0.00,Wunderground v.1.15,2013-05-05 19:45:00,
2013-05-05 15:50:00,67.9,49.1,29.88,WNW,298,18.0,18.0,51,0.00,,,0.00,Wunderground v.1.15,2013-05-05 19:50:00,
2013-05-05 15:55:00,68.0,49.2,29.88,WNW,287,17.0,21.0,51,0.00,,,0.00,Wunderground v.1.15,2013-05-05 19:55:00,
2013-05-05 16:05:00,68.3,48.4,29.88,WNW,298,16.0,21.0,49,0.00,,,0.00,Wunderground v.1.15,2013-05-05 20:05:00,
2013-05-05 16:10:00,68.2,48.8,29.88,NW,310,16.0,21.0,50,0.00,,,0.00,Wunderground v.1.15,2013-05-05 20:10:00,
2013-05-05 16:20:00,68.1,48.2,29.88,NW,319,16.0,16.0,49,0.00,,,0.00,Wunderground v.1.15,2013-05-05 20:20:00,
2013-05-05 16:25:00,68.0,49.2,29.88,WNW,295,15.0,18.0,51,0.00,,,0.00,Wunderground v.1.15,2013-05-05 20:25:00,
2013-05-05 16:35:00,67.9,49.1,29.88,WNW,295,16.0,21.0,51,0.00,,,0.00,Wunderground v.1.15,2013-05-05 20:35:00,
2013-05-05 16:40:00,67.8,49.5,29.88,WNW,303,17.0,21.0,52,0.00,,,0.00,Wunderground v.1.15,2013-05-05 20:40:00,
2013-05-05 16:50:00,67.2,47.9,29.88,NW,314,17.0,17.0,50,0.00,,,0.00,Wunderground v.1.15,2013-05-05 20:50:00,
2013-05-05 16:55:00,67.2,47.9,29.88,NW,317,16.0,21.0,50,0.00,,,0.00,Wunderground v.1.15,2013-05-05 20:55:00,
2013-05-05 17:05:00,66.9,47.6,29.89,NW,305,15.0,21.0,50,0.00,,,0.00,Wunderground v.1.15,2013-05-05 21:05:00,
2013-05-05 17:10:00,67.1,47.8,29.89,NW,313,13.0,13.0,50,0.00,,,0.00,Wunderground v.1.15,2013-05-05 21:10:00,
2013-05-05 17:15:00,66.8,45.9,29.89,WNW,300,14.0,16.0,47,0.00,,,0.00,Wunderground v.1.15,2013-05-05 21:15:00,
2013-05-05 17:25:00,66.7,48.0,29.89,NW,306,14.0,21.0,51,0.00,,,0.00,Wunderground v.1.15,2013-05-05 21:25:00,
2013-05-05 17:30:00,66.6,47.9,29.89,WNW,289,15.0,15.0,51,0.00,,,0.00,Wunderground v.1.15,2013-05-05 21:30:00,
2013-05-05 17:40:00,66.3,46.6,29.90,NW,309,15.0,21.0,49,0.00,,,0.00,Wunderground v.1.15,2013-05-05 21:40:00,
2013-05-05 17:45:00,66.2,46.5,29.90,NW,313,15.0,21.0,49,0.00,,,0.00,Wunderground v.1.15,2013-05-05 21:45:00,
2013-05-05 17:50:00,66.2,47.5,29.90,NW,306,15.0,15.0,51,0.00,,,0.00,Wunderground v.1.15,2013-05-05 21:50:00,
2013-05-05 17:55:00,66.3,47.1,29.90,NW,323,14.0,21.0,50,0.00,,,0.00,Wunderground v.1.15,2013-05-05 21:55:00,
2013-05-05 18:05:00,66.3,47.1,29.90,NW,323,14.0,15.0,50,0.00,,,0.00,Wunderground v.1.15,2013-05-05 22:05:00,
2013-05-05 18:10:00,66.1,46.4,29.90,NW,309,14.0,21.0,49,0.00,,,0.00,Wunderground v.1.15,2013-05-05 22:10:00,
2013-05-05 18:20:00,65.7,46.0,29.90,NW,311,15.0,15.0,49,0.00,,,0.00,Wunderground v.1.15,2013-05-05 22:20:00,
2013-05-05 18:25:00,65.8,46.6,29.90,WNW,301,14.0,21.0,50,0.00,,,0.00,Wunderground v.1.15,2013-05-05 22:25:00,
2013-05-05 18:30:00,65.7,45.5,29.90,NNW,338,13.0,21.0,48,0.00,,,0.00,Wunderground v.1.15,2013-05-05 22:30:00,
2013-05-05 18:35:00,65.6,47.5,29.90,NW,308,12.0,21.0,52,0.00,,,0.00,Wunderground v.1.15,2013-05-05 22:35:00,
2013-05-05 18:40:00,65.4,45.7,29.90,NW,319,13.0,21.0,49,0.00,,,0.00,Wunderground v.1.15,2013-05-05 22:40:00,
2013-05-05 18:50:00,64.6,48.1,29.90,NNW,341,8.0,21.0,55,0.00,,,0.00,Wunderground v.1.15,2013-05-05 22:50:00,
2013-05-05 18:55:00,64.3,45.8,29.90,North,9,9.0,21.0,51,0.00,,,0.00,Wunderground v.1.15,2013-05-05 22:55:00,
2013-05-05 19:05:00,63.9,46.4,29.91,NNW,333,10.0,21.0,53,0.00,,,0.00,Wunderground v.1.15,2013-05-05 23:05:00,
2013-05-05 19:10:00,63.7,46.7,29.91,NNW,346,9.0,9.0,54,0.00,,,0.00,Wunderground v.1.15,2013-05-05 23:10:00,
2013-05-05 19:20:00,63.3,45.9,29.91,NW,312,8.0,21.0,53,0.00,,,0.00,Wunderground v.1.15,2013-05-05 23:20:00,
2013-05-05 19:25:00,63.2,46.8,29.91,NNW,336,8.0,21.0,55,0.00,,,0.00,Wunderground v.1.15,2013-05-05 23:25:00,
2013-05-05 19:35:00,63.1,45.2,29.92,NNW,340,11.0,21.0,52,0.00,,,0.00,Wunderground v.1.15,2013-05-05 23:35:00,
2013-05-05 19:40:00,62.7,45.3,29.92,North,9,9.0,9.0,53,0.00,,,0.00,Wunderground v.1.15,2013-05-05 23:40:00,
2013-05-05 19:45:00,62.6,46.7,29.92,NNE,27,7.0,21.0,56,0.00,,,0.00,Wunderground v.1.15,2013-05-05 23:45:00,
2013-05-05 19:55:00,62.2,45.3,29.93,NNW,336,10.0,21.0,54,0.00,,,0.00,Wunderground v.1.15,2013-05-05 23:55:00,
2013-05-05 20:00:00,62.0,45.2,29.93,NNW,328,10.0,10.0,54,0.00,,,0.00,Wunderground v.1.15,2013-05-06 00:00:00,
2013-05-05 20:05:00,61.9,45.5,29.93,North,360,9.0,21.0,55,0.00,,,0.00,Wunderground v.1.15,2013-05-06 00:05:00,
2013-05-05 20:15:00,61.6,44.8,29.93,NW,323,9.0,21.0,54,0.00,,,0.00,Wunderground v.1.15,2013-05-06 00:15:00,
2013-05-05 20:20:00,61.4,46.0,29.94,NNW,340,8.0,21.0,57,0.00,,,0.00,Wunderground v.1.15,2013-05-06 00:20:00,
2013-05-05 20:25:00,61.2,46.3,29.94,NNW,347,8.0,21.0,58,0.00,,,0.00,Wunderground v.1.15,2013-05-06 00:25:00,
2013-05-05 20:35:00,60.8,46.4,29.94,NNW,340,7.0,21.0,59,0.00,,,0.00,Wunderground v.1.15,2013-05-06 00:35:00,
2013-05-05 20:40:00,60.7,46.3,29.95,North,355,6.0,21.0,59,0.00,,,0.00,Wunderground v.1.15,2013-05-06 00:40:00,
2013-05-05 20:50:00,60.5,46.1,29.95,NNW,333,8.0,21.0,59,0.00,,,0.00,Wunderground v.1.15,2013-05-06 00:50:00,
2013-05-05 20:55:00,60.4,46.0,29.95,NNW,333,8.0,21.0,59,0.00,,,0.00,Wunderground v.1.15,2013-05-06 00:55:00,
2013-05-05 21:05:00,60.2,48.0,29.96,NW,324,5.0,21.0,64,0.00,,,0.00,Wunderground v.1.15,2013-05-06 01:05:00,
2013-05-05 21:10:00,60.0,46.5,29.96,NNW,329,5.0,21.0,61,0.00,,,0.00,Wunderground v.1.15,2013-05-06 01:10:00,
2013-05-05 21:20:00,59.6,47.0,29.96,NNE,17,5.0,5.0,63,0.00,,,0.00,Wunderground v.1.15,2013-05-06 01:20:00,
2013-05-05 21:25:00,59.5,46.5,29.96,North,355,5.0,21.0,62,0.00,,,0.00,Wunderground v.1.15,2013-05-06 01:25:00,
2013-05-05 21:35:00,59.3,46.3,29.97,NNW,342,6.0,21.0,62,0.00,,,0.00,Wunderground v.1.15,2013-05-06 01:35:00,
2013-05-05 21:40:00,59.1,46.5,29.97,NNE,23,6.0,21.0,63,0.00,,,0.00,Wunderground v.1.15,2013-05-06 01:40:00,
2013-05-05 21:50:00,59.1,46.1,29.97,NW,307,8.0,21.0,62,0.00,,,0.00,Wunderground v.1.15,2013-05-06 01:50:00,
2013-05-05 21:55:00,59.0,46.4,29.97,NW,311,9.0,21.0,63,0.00,,,0.00,Wunderground v.1.15,2013-05-06 01:55:00,
2013-05-05 22:05:00,58.9,46.3,29.97,NW,311,9.0,21.0,63,0.00,,,0.00,Wunderground v.1.15,2013-05-06 02:05:00,
2013-05-05 22:10:00,58.8,46.2,29.98,NW,313,9.0,21.0,63,0.00,,,0.00,Wunderground v.1.15,2013-05-06 02:10:00,
2013-05-05 22:15:00,58.7,46.5,29.98,North,351,10.0,21.0,64,0.00,,,0.00,Wunderground v.1.15,2013-05-06 02:15:00,
2013-05-05 22:25:00,58.6,46.5,29.98,NNE,17,8.0,21.0,64,0.00,,,0.00,Wunderground v.1.15,2013-05-06 02:25:00,
2013-05-05 22:30:00,58.5,45.9,29.98,NNW,343,8.0,8.0,63,0.00,,,0.00,Wunderground v.1.15,2013-05-06 02:30:00,
2013-05-05 22:35:00,58.5,46.8,29.99,NNW,331,8.0,12.0,65,0.00,,,0.00,Wunderground v.1.15,2013-05-06 02:35:00,
2013-05-05 22:45:00,58.4,47.5,29.99,WNW,300,8.0,21.0,67,0.00,,,0.00,Wunderground v.1.15,2013-05-06 02:45:00,
2013-05-05 22:50:00,58.3,47.0,29.99,NW,313,7.0,7.0,66,0.00,,,0.00,Wunderground v.1.15,2013-05-06 02:50:00,
2013-05-05 22:55:00,58.2,46.9,29.99,North,355,8.0,8.0,66,0.00,,,0.00,Wunderground v.1.15,2013-05-06 02:55:00,
2013-05-05 23:05:00,58.1,47.2,30.00,NW,325,6.0,21.0,67,0.00,,,0.00,Wunderground v.1.15,2013-05-06 03:05:00,
2013-05-05 23:10:00,58.0,47.5,30.00,NNW,327,6.0,6.0,68,0.00,,,0.00,Wunderground v.1.15,2013-05-06 03:10:00,
2013-05-05 23:20:00,57.9,47.0,30.01,NNW,330,8.0,21.0,67,0.00,,,0.00,Wunderground v.1.15,2013-05-06 03:20:00,
2013-05-05 23:25:00,57.8,46.9,30.01,NW,325,8.0,21.0,67,0.00,,,0.00,Wunderground v.1.15,2013-05-06 03:25:00,
2013-05-05 23:35:00,57.7,47.6,30.01,NW,313,9.0,9.0,69,0.00,,,0.00,Wunderground v.1.15,2013-05-06 03:35:00,
2013-05-05 23:40:00,57.7,48.0,30.01,NW,319,11.0,11.0,70,0.00,,,0.00,Wunderground v.1.15,2013-05-06 03:40:00,
2013-05-05 23:45:00,57.7,47.6,30.01,NNW,345,9.0,12.0,69,0.00,,,0.00,Wunderground v.1.15,2013-05-06 03:45:00,
2013-05-05 23:55:00,57.5,47.4,30.01,NW,320,10.0,21.0,69,0.00,,,0.00,Wunderground v.1.15,2013-05-06 03:55:00,